sensor_id;sensor_type;location;lat;lon;timestamp;temperature;humidity
14236;DHT22;7202;50.718;7.072;2023-06-14T00:01:04;17.10;99.90
14236;DHT22;7202;50.718;7.072;2023-06-14T00:03:34;17.10;99.90
14236;DHT22;7202;50.718;7.072;2023-06-14T00:06:03;17.00;99.90
14236;DHT22;7202;50.718;7.072;2023-06-14T00:08:32;17.00;99.90
14236;DHT22;7202;50.718;7.072;2023-06-14T00:11:01;17.00;99.90
14236;DHT22;7202;50.718;7.072;2023-06-14T00:13:29;16.90;99.90
14236;DHT22;7202;50.718;7.072;2023-06-14T00:15:58;16.90;99.90
14236;DHT22;7202;50.718;7.072;2023-06-14T00:18:27;16.90;99.90
14236;DHT22;7202;50.718;7.072;2023-06-14T00:20:58;16.90;99.90
14236;DHT22;7202;50.718;7.072;2023-06-14T00:23:26;16.90;99.90
14236;DHT22;7202;50.718;7.072;2023-06-14T00:25:55;16.80;99.90
14236;DHT22;7202;50.718;7.072;2023-06-14T00:28:24;16.80;99.90
14236;DHT22;7202;50.718;7.072;2023-06-14T00:30:52;16.80;99.90
14236;DHT22;7202;50.718;7.072;2023-06-14T00:33:21;16.70;99.90
14236;DHT22;7202;50.718;7.072;2023-06-14T00:35:49;16.70;99.90
14236;DHT22;7202;50.718;7.072;2023-06-14T00:38:22;16.70;99.90
14236;DHT22;7202;50.718;7.072;2023-06-14T00:40:51;16.70;99.90
14236;DHT22;7202;50.718;7.072;2023-06-14T00:43:19;16.60;99.90
14236;DHT22;7202;50.718;7.072;2023-06-14T00:45:48;16.60;99.90
14236;DHT22;7202;50.718;7.072;2023-06-14T00:48:18;16.60;99.90
14236;DHT22;7202;50.718;7.072;2023-06-14T00:50:49;16.60;99.90
14236;DHT22;7202;50.718;7.072;2023-06-14T00:53:19;16.50;99.90
14236;DHT22;7202;50.718;7.072;2023-06-14T00:55:52;16.50;99.90
14236;DHT22;7202;50.718;7.072;2023-06-14T00:58:22;16.50;99.90
14236;DHT22;7202;50.718;7.072;2023-06-14T01:00:51;16.50;99.90
14236;DHT22;7202;50.718;7.072;2023-06-14T01:03:20;16.50;99.90
14236;DHT22;7202;50.718;7.072;2023-06-14T01:05:51;16.50;99.90
14236;DHT22;7202;50.718;7.072;2023-06-14T01:08:26;16.40;99.90
14236;DHT22;7202;50.718;7.072;2023-06-14T01:11:02;16.40;99.90
14236;DHT22;7202;50.718;7.072;2023-06-14T01:13:35;16.40;99.90
14236;DHT22;7202;50.718;7.072;2023-06-14T01:16:05;16.30;99.90
14236;DHT22;7202;50.718;7.072;2023-06-14T01:18:35;16.30;99.90
14236;DHT22;7202;50.718;7.072;2023-06-14T01:21:04;16.20;99.90
14236;DHT22;7202;50.718;7.072;2023-06-14T01:23:35;16.20;99.90
14236;DHT22;7202;50.718;7.072;2023-06-14T01:26:03;16.20;99.90
14236;DHT22;7202;50.718;7.072;2023-06-14T01:28:33;16.10;99.90
14236;DHT22;7202;50.718;7.072;2023-06-14T01:31:03;16.10;99.90
14236;DHT22;7202;50.718;7.072;2023-06-14T01:33:34;16.10;99.90
14236;DHT22;7202;50.718;7.072;2023-06-14T01:36:05;16.10;99.90
14236;DHT22;7202;50.718;7.072;2023-06-14T01:38:37;16.00;99.90
14236;DHT22;7202;50.718;7.072;2023-06-14T01:41:06;15.90;99.90
14236;DHT22;7202;50.718;7.072;2023-06-14T01:43:35;15.90;99.90
14236;DHT22;7202;50.718;7.072;2023-06-14T01:46:06;15.80;99.90
14236;DHT22;7202;50.718;7.072;2023-06-14T01:48:35;15.80;99.90
14236;DHT22;7202;50.718;7.072;2023-06-14T01:51:03;15.80;99.90
14236;DHT22;7202;50.718;7.072;2023-06-14T01:53:32;15.70;99.90
14236;DHT22;7202;50.718;7.072;2023-06-14T01:56:02;15.70;99.90
14236;DHT22;7202;50.718;7.072;2023-06-14T01:58:31;15.60;99.90
14236;DHT22;7202;50.718;7.072;2023-06-14T02:01:01;15.60;99.90
14236;DHT22;7202;50.718;7.072;2023-06-14T02:03:29;15.50;99.90
14236;DHT22;7202;50.718;7.072;2023-06-14T02:05:58;15.60;99.90
14236;DHT22;7202;50.718;7.072;2023-06-14T02:08:27;15.50;99.90
14236;DHT22;7202;50.718;7.072;2023-06-14T02:10:56;15.40;99.90
14236;DHT22;7202;50.718;7.072;2023-06-14T02:13:26;15.50;99.90
14236;DHT22;7202;50.718;7.072;2023-06-14T02:15:55;15.80;99.90
14236;DHT22;7202;50.718;7.072;2023-06-14T02:18:24;15.30;99.90
14236;DHT22;7202;50.718;7.072;2023-06-14T02:20:53;15.30;99.90
14236;DHT22;7202;50.718;7.072;2023-06-14T02:23:22;15.30;99.90
14236;DHT22;7202;50.718;7.072;2023-06-14T02:25:51;15.30;99.90
14236;DHT22;7202;50.718;7.072;2023-06-14T02:28:19;15.20;99.90
14236;DHT22;7202;50.718;7.072;2023-06-14T02:30:50;15.20;99.90
14236;DHT22;7202;50.718;7.072;2023-06-14T02:33:23;15.20;99.90
14236;DHT22;7202;50.718;7.072;2023-06-14T02:35:53;15.20;99.90
14236;DHT22;7202;50.718;7.072;2023-06-14T02:38:24;15.10;99.90
14236;DHT22;7202;50.718;7.072;2023-06-14T02:40:52;15.10;99.90
14236;DHT22;7202;50.718;7.072;2023-06-14T02:43:21;15.00;99.90
14236;DHT22;7202;50.718;7.072;2023-06-14T02:45:51;15.00;99.90
14236;DHT22;7202;50.718;7.072;2023-06-14T02:48:21;15.00;99.90
14236;DHT22;7202;50.718;7.072;2023-06-14T02:50:50;15.00;99.90
14236;DHT22;7202;50.718;7.072;2023-06-14T02:53:18;14.90;99.90
14236;DHT22;7202;50.718;7.072;2023-06-14T02:55:47;14.90;99.90
14236;DHT22;7202;50.718;7.072;2023-06-14T02:58:17;14.80;99.90
14236;DHT22;7202;50.718;7.072;2023-06-14T03:00:45;14.80;99.90
14236;DHT22;7202;50.718;7.072;2023-06-14T03:03:16;14.80;99.90
14236;DHT22;7202;50.718;7.072;2023-06-14T03:05:52;14.70;99.90
14236;DHT22;7202;50.718;7.072;2023-06-14T03:08:24;14.70;99.90
14236;DHT22;7202;50.718;7.072;2023-06-14T03:10:56;14.70;99.90
14236;DHT22;7202;50.718;7.072;2023-06-14T03:13:25;14.70;99.90
14236;DHT22;7202;50.718;7.072;2023-06-14T03:15:54;14.60;99.90
14236;DHT22;7202;50.718;7.072;2023-06-14T03:18:25;14.60;99.90
14236;DHT22;7202;50.718;7.072;2023-06-14T03:20:56;14.50;99.90
14236;DHT22;7202;50.718;7.072;2023-06-14T03:23:26;14.50;99.90
14236;DHT22;7202;50.718;7.072;2023-06-14T03:25:55;14.50;99.90
14236;DHT22;7202;50.718;7.072;2023-06-14T03:28:24;14.50;99.90
14236;DHT22;7202;50.718;7.072;2023-06-14T03:30:55;14.50;99.90
14236;DHT22;7202;50.718;7.072;2023-06-14T03:33:26;14.50;99.90
14236;DHT22;7202;50.718;7.072;2023-06-14T03:35:55;14.40;99.90
14236;DHT22;7202;50.718;7.072;2023-06-14T03:38:24;14.40;99.90
14236;DHT22;7202;50.718;7.072;2023-06-14T03:40:53;14.30;99.90
14236;DHT22;7202;50.718;7.072;2023-06-14T03:43:22;14.30;99.90
14236;DHT22;7202;50.718;7.072;2023-06-14T03:45:51;14.30;99.90
14236;DHT22;7202;50.718;7.072;2023-06-14T03:48:22;14.30;99.90
14236;DHT22;7202;50.718;7.072;2023-06-14T03:50:53;14.30;99.90
14236;DHT22;7202;50.718;7.072;2023-06-14T03:53:27;14.30;99.90
14236;DHT22;7202;50.718;7.072;2023-06-14T03:55:57;14.20;99.90
14236;DHT22;7202;50.718;7.072;2023-06-14T03:58:35;14.20;99.90
14236;DHT22;7202;50.718;7.072;2023-06-14T04:01:04;14.20;99.90
14236;DHT22;7202;50.718;7.072;2023-06-14T04:03:34;14.20;99.90
14236;DHT22;7202;50.718;7.072;2023-06-14T04:06:05;14.20;99.90
14236;DHT22;7202;50.718;7.072;2023-06-14T04:08:35;14.20;99.90
14236;DHT22;7202;50.718;7.072;2023-06-14T04:11:03;14.30;99.90
14236;DHT22;7202;50.718;7.072;2023-06-14T04:13:34;14.30;99.90
14236;DHT22;7202;50.718;7.072;2023-06-14T04:16:04;14.30;99.90
14236;DHT22;7202;50.718;7.072;2023-06-14T04:18:35;14.30;99.90
14236;DHT22;7202;50.718;7.072;2023-06-14T04:21:05;14.40;99.90
14236;DHT22;7202;50.718;7.072;2023-06-14T04:23:35;14.60;99.90
14236;DHT22;7202;50.718;7.072;2023-06-14T04:26:05;14.80;99.90
14236;DHT22;7202;50.718;7.072;2023-06-14T04:28:34;15.00;99.90
14236;DHT22;7202;50.718;7.072;2023-06-14T04:31:10;15.10;99.90
14236;DHT22;7202;50.718;7.072;2023-06-14T04:33:38;15.10;99.90
14236;DHT22;7202;50.718;7.072;2023-06-14T04:36:16;15.20;99.90
14236;DHT22;7202;50.718;7.072;2023-06-14T04:38:48;15.20;99.90
14236;DHT22;7202;50.718;7.072;2023-06-14T04:41:16;15.30;99.90
14236;DHT22;7202;50.718;7.072;2023-06-14T04:43:46;15.30;99.90
14236;DHT22;7202;50.718;7.072;2023-06-14T04:46:16;15.60;99.90
14236;DHT22;7202;50.718;7.072;2023-06-14T04:48:46;15.60;99.90
14236;DHT22;7202;50.718;7.072;2023-06-14T04:51:19;15.70;99.90
14236;DHT22;7202;50.718;7.072;2023-06-14T04:53:49;15.90;99.90
14236;DHT22;7202;50.718;7.072;2023-06-14T04:56:18;16.30;99.90
14236;DHT22;7202;50.718;7.072;2023-06-14T04:58:48;16.60;99.90
14236;DHT22;7202;50.718;7.072;2023-06-14T05:01:17;16.90;99.90
14236;DHT22;7202;50.718;7.072;2023-06-14T05:03:46;17.10;99.90
14236;DHT22;7202;50.718;7.072;2023-06-14T05:06:18;17.20;99.90
14236;DHT22;7202;50.718;7.072;2023-06-14T05:08:47;17.30;99.90
14236;DHT22;7202;50.718;7.072;2023-06-14T05:11:15;17.40;99.90
14236;DHT22;7202;50.718;7.072;2023-06-14T05:13:46;17.50;99.90
14236;DHT22;7202;50.718;7.072;2023-06-14T05:16:15;17.60;99.90
14236;DHT22;7202;50.718;7.072;2023-06-14T05:18:47;17.60;99.90
14236;DHT22;7202;50.718;7.072;2023-06-14T05:21:19;17.70;99.90
14236;DHT22;7202;50.718;7.072;2023-06-14T05:23:47;17.90;99.90
14236;DHT22;7202;50.718;7.072;2023-06-14T05:26:18;18.00;99.90
14236;DHT22;7202;50.718;7.072;2023-06-14T05:28:47;18.10;99.90
14236;DHT22;7202;50.718;7.072;2023-06-14T05:31:17;18.10;99.90
14236;DHT22;7202;50.718;7.072;2023-06-14T05:33:45;18.10;99.90
14236;DHT22;7202;50.718;7.072;2023-06-14T05:36:14;18.20;99.90
14236;DHT22;7202;50.718;7.072;2023-06-14T05:38:45;18.30;99.90
14236;DHT22;7202;50.718;7.072;2023-06-14T05:41:14;18.40;99.90
14236;DHT22;7202;50.718;7.072;2023-06-14T05:43:42;18.50;99.90
14236;DHT22;7202;50.718;7.072;2023-06-14T05:46:11;18.60;99.90
14236;DHT22;7202;50.718;7.072;2023-06-14T05:48:39;18.70;99.90
14236;DHT22;7202;50.718;7.072;2023-06-14T05:51:08;18.70;99.90
14236;DHT22;7202;50.718;7.072;2023-06-14T05:53:38;19.00;99.90
14236;DHT22;7202;50.718;7.072;2023-06-14T05:56:08;19.10;99.90
14236;DHT22;7202;50.718;7.072;2023-06-14T05:58:37;19.20;99.90
14236;DHT22;7202;50.718;7.072;2023-06-14T06:01:05;19.30;99.90
14236;DHT22;7202;50.718;7.072;2023-06-14T06:03:34;19.50;99.90
14236;DHT22;7202;50.718;7.072;2023-06-14T06:06:03;19.60;99.90
14236;DHT22;7202;50.718;7.072;2023-06-14T06:08:32;19.70;99.90
14236;DHT22;7202;50.718;7.072;2023-06-14T06:11:01;19.80;99.90
14236;DHT22;7202;50.718;7.072;2023-06-14T06:13:31;19.90;99.90
14236;DHT22;7202;50.718;7.072;2023-06-14T06:16:00;20.10;99.90
14236;DHT22;7202;50.718;7.072;2023-06-14T06:18:28;20.20;99.90
14236;DHT22;7202;50.718;7.072;2023-06-14T06:20:57;20.20;99.90
14236;DHT22;7202;50.718;7.072;2023-06-14T06:23:26;20.30;99.90
14236;DHT22;7202;50.718;7.072;2023-06-14T06:25:55;20.40;99.90
14236;DHT22;7202;50.718;7.072;2023-06-14T06:28:26;20.40;99.90
14236;DHT22;7202;50.718;7.072;2023-06-14T06:30:56;20.50;99.90
14236;DHT22;7202;50.718;7.072;2023-06-14T06:33:25;20.50;99.90
14236;DHT22;7202;50.718;7.072;2023-06-14T06:35:53;20.60;99.90
14236;DHT22;7202;50.718;7.072;2023-06-14T06:38:22;20.70;99.90
14236;DHT22;7202;50.718;7.072;2023-06-14T06:40:53;20.70;99.90
14236;DHT22;7202;50.718;7.072;2023-06-14T06:43:23;20.80;99.90
14236;DHT22;7202;50.718;7.072;2023-06-14T06:45:53;20.90;99.90
14236;DHT22;7202;50.718;7.072;2023-06-14T06:48:23;21.00;99.90
14236;DHT22;7202;50.718;7.072;2023-06-14T06:50:51;21.00;99.90
14236;DHT22;7202;50.718;7.072;2023-06-14T06:53:20;21.10;99.90
14236;DHT22;7202;50.718;7.072;2023-06-14T06:56:05;21.10;99.90
14236;DHT22;7202;50.718;7.072;2023-06-14T06:58:33;21.20;99.90
14236;DHT22;7202;50.718;7.072;2023-06-14T07:01:02;21.20;99.90
14236;DHT22;7202;50.718;7.072;2023-06-14T07:03:32;21.30;99.90
14236;DHT22;7202;50.718;7.072;2023-06-14T07:06:01;21.30;99.90
14236;DHT22;7202;50.718;7.072;2023-06-14T07:08:30;21.40;99.90
14236;DHT22;7202;50.718;7.072;2023-06-14T07:10:58;21.30;99.90
14236;DHT22;7202;50.718;7.072;2023-06-14T07:13:27;21.40;99.90
14236;DHT22;7202;50.718;7.072;2023-06-14T07:15:57;21.40;99.90
14236;DHT22;7202;50.718;7.072;2023-06-14T07:18:27;21.40;99.90
14236;DHT22;7202;50.718;7.072;2023-06-14T07:20:57;21.40;99.90
14236;DHT22;7202;50.718;7.072;2023-06-14T07:23:25;21.40;99.90
14236;DHT22;7202;50.718;7.072;2023-06-14T07:25:54;21.40;99.90
14236;DHT22;7202;50.718;7.072;2023-06-14T07:28:23;21.50;99.90
14236;DHT22;7202;50.718;7.072;2023-06-14T07:30:52;21.50;99.90
14236;DHT22;7202;50.718;7.072;2023-06-14T07:33:20;21.50;99.90
14236;DHT22;7202;50.718;7.072;2023-06-14T07:35:49;21.50;99.90
14236;DHT22;7202;50.718;7.072;2023-06-14T07:38:21;21.50;99.90
14236;DHT22;7202;50.718;7.072;2023-06-14T07:40:49;21.50;99.90
14236;DHT22;7202;50.718;7.072;2023-06-14T07:43:18;21.60;99.90
14236;DHT22;7202;50.718;7.072;2023-06-14T07:45:49;21.70;99.90
14236;DHT22;7202;50.718;7.072;2023-06-14T07:48:33;21.70;99.90
14236;DHT22;7202;50.718;7.072;2023-06-14T07:51:02;21.80;99.90
14236;DHT22;7202;50.718;7.072;2023-06-14T07:53:32;21.90;99.90
14236;DHT22;7202;50.718;7.072;2023-06-14T07:56:01;21.90;99.90
14236;DHT22;7202;50.718;7.072;2023-06-14T07:58:30;21.90;99.90
14236;DHT22;7202;50.718;7.072;2023-06-14T08:00:58;21.90;99.90
14236;DHT22;7202;50.718;7.072;2023-06-14T08:03:28;22.00;99.90
14236;DHT22;7202;50.718;7.072;2023-06-14T08:05:58;22.00;99.90
14236;DHT22;7202;50.718;7.072;2023-06-14T08:08:28;22.00;99.90
14236;DHT22;7202;50.718;7.072;2023-06-14T08:10:58;22.00;99.90
14236;DHT22;7202;50.718;7.072;2023-06-14T08:13:26;22.10;99.90
14236;DHT22;7202;50.718;7.072;2023-06-14T08:15:55;22.10;99.90
14236;DHT22;7202;50.718;7.072;2023-06-14T08:18:25;22.10;99.90
14236;DHT22;7202;50.718;7.072;2023-06-14T08:20:56;22.20;99.90
14236;DHT22;7202;50.718;7.072;2023-06-14T08:23:25;22.20;99.90
14236;DHT22;7202;50.718;7.072;2023-06-14T08:25:54;22.20;99.90
14236;DHT22;7202;50.718;7.072;2023-06-14T08:28:25;22.20;99.90
14236;DHT22;7202;50.718;7.072;2023-06-14T08:30:54;22.20;99.90
14236;DHT22;7202;50.718;7.072;2023-06-14T08:33:22;22.20;99.90
14236;DHT22;7202;50.718;7.072;2023-06-14T08:35:52;22.30;99.90
14236;DHT22;7202;50.718;7.072;2023-06-14T08:38:21;22.30;99.90
14236;DHT22;7202;50.718;7.072;2023-06-14T08:40:51;22.30;99.90
14236;DHT22;7202;50.718;7.072;2023-06-14T08:43:21;22.30;99.90
14236;DHT22;7202;50.718;7.072;2023-06-14T08:45:52;22.40;99.90
14236;DHT22;7202;50.718;7.072;2023-06-14T08:48:26;22.40;99.90
14236;DHT22;7202;50.718;7.072;2023-06-14T08:50:55;22.50;99.90
14236;DHT22;7202;50.718;7.072;2023-06-14T08:53:31;22.60;99.90
14236;DHT22;7202;50.718;7.072;2023-06-14T08:56:05;22.60;99.90
14236;DHT22;7202;50.718;7.072;2023-06-14T08:58:35;22.70;99.90
14236;DHT22;7202;50.718;7.072;2023-06-14T09:01:07;22.70;99.90
14236;DHT22;7202;50.718;7.072;2023-06-14T09:03:36;22.70;98.60
14236;DHT22;7202;50.718;7.072;2023-06-14T09:06:09;22.70;99.90
14236;DHT22;7202;50.718;7.072;2023-06-14T09:08:43;22.80;99.90
14236;DHT22;7202;50.718;7.072;2023-06-14T09:11:12;22.80;97.20
14236;DHT22;7202;50.718;7.072;2023-06-14T09:13:42;22.80;97.30
14236;DHT22;7202;50.718;7.072;2023-06-14T09:16:12;22.90;97.60
14236;DHT22;7202;50.718;7.072;2023-06-14T09:18:43;22.90;97.70
14236;DHT22;7202;50.718;7.072;2023-06-14T09:21:12;22.90;97.30
14236;DHT22;7202;50.718;7.072;2023-06-14T09:23:41;22.90;97.20
14236;DHT22;7202;50.718;7.072;2023-06-14T09:26:11;22.90;97.50
14236;DHT22;7202;50.718;7.072;2023-06-14T09:28:44;23.00;99.30
14236;DHT22;7202;50.718;7.072;2023-06-14T09:31:15;23.00;98.50
14236;DHT22;7202;50.718;7.072;2023-06-14T09:33:46;23.00;96.80
14236;DHT22;7202;50.718;7.072;2023-06-14T09:36:17;23.00;97.00
14236;DHT22;7202;50.718;7.072;2023-06-14T09:38:52;23.10;97.30
14236;DHT22;7202;50.718;7.072;2023-06-14T09:41:30;23.10;96.50
14236;DHT22;7202;50.718;7.072;2023-06-14T09:44:02;23.10;96.10
14236;DHT22;7202;50.718;7.072;2023-06-14T09:46:37;23.10;95.60
14236;DHT22;7202;50.718;7.072;2023-06-14T09:49:06;23.20;97.00
14236;DHT22;7202;50.718;7.072;2023-06-14T09:51:42;23.20;95.70
14236;DHT22;7202;50.718;7.072;2023-06-14T09:54:15;23.30;95.20
14236;DHT22;7202;50.718;7.072;2023-06-14T09:56:45;23.30;94.70
14236;DHT22;7202;50.718;7.072;2023-06-14T09:59:19;23.40;94.70
14236;DHT22;7202;50.718;7.072;2023-06-14T10:01:58;23.40;94.60
14236;DHT22;7202;50.718;7.072;2023-06-14T10:04:29;23.50;94.50
14236;DHT22;7202;50.718;7.072;2023-06-14T10:06:59;23.50;94.60
14236;DHT22;7202;50.718;7.072;2023-06-14T10:09:30;23.50;94.50
14236;DHT22;7202;50.718;7.072;2023-06-14T10:12:00;23.50;94.10
14236;DHT22;7202;50.718;7.072;2023-06-14T10:14:29;23.60;94.60
14236;DHT22;7202;50.718;7.072;2023-06-14T10:17:04;23.70;94.50
14236;DHT22;7202;50.718;7.072;2023-06-14T10:19:41;23.70;94.30
14236;DHT22;7202;50.718;7.072;2023-06-14T10:22:17;23.80;94.30
14236;DHT22;7202;50.718;7.072;2023-06-14T10:24:46;23.80;94.10
14236;DHT22;7202;50.718;7.072;2023-06-14T10:27:17;23.80;94.80
14236;DHT22;7202;50.718;7.072;2023-06-14T10:30:06;23.80;96.30
14236;DHT22;7202;50.718;7.072;2023-06-14T10:33:03;23.80;93.80
14236;DHT22;7202;50.718;7.072;2023-06-14T10:35:32;23.80;93.90
14236;DHT22;7202;50.718;7.072;2023-06-14T10:38:07;23.80;94.80
14236;DHT22;7202;50.718;7.072;2023-06-14T10:40:38;23.80;94.10
14236;DHT22;7202;50.718;7.072;2023-06-14T10:43:22;23.80;94.00
14236;DHT22;7202;50.718;7.072;2023-06-14T10:46:16;23.90;93.40
14236;DHT22;7202;50.718;7.072;2023-06-14T10:48:47;23.90;94.00
14236;DHT22;7202;50.718;7.072;2023-06-14T10:51:17;24.00;94.90
14236;DHT22;7202;50.718;7.072;2023-06-14T10:53:48;24.10;94.40
14236;DHT22;7202;50.718;7.072;2023-06-14T10:56:26;24.10;95.40
14236;DHT22;7202;50.718;7.072;2023-06-14T10:58:56;24.20;95.80
14236;DHT22;7202;50.718;7.072;2023-06-14T11:01:41;24.30;93.10
14236;DHT22;7202;50.718;7.072;2023-06-14T11:04:13;24.30;95.00
14236;DHT22;7202;50.718;7.072;2023-06-14T11:06:46;24.30;95.00
14236;DHT22;7202;50.718;7.072;2023-06-14T11:09:49;24.30;93.20
14236;DHT22;7202;50.718;7.072;2023-06-14T11:12:21;24.30;94.50
14236;DHT22;7202;50.718;7.072;2023-06-14T11:14:52;24.30;95.00
14236;DHT22;7202;50.718;7.072;2023-06-14T11:17:20;24.30;94.50
14236;DHT22;7202;50.718;7.072;2023-06-14T11:19:51;24.30;95.00
14236;DHT22;7202;50.718;7.072;2023-06-14T11:22:40;24.30;94.30
14236;DHT22;7202;50.718;7.072;2023-06-14T11:25:09;24.30;94.10
14236;DHT22;7202;50.718;7.072;2023-06-14T11:27:38;24.40;95.50
14236;DHT22;7202;50.718;7.072;2023-06-14T11:30:08;24.40;95.90
14236;DHT22;7202;50.718;7.072;2023-06-14T11:32:37;24.30;94.80
14236;DHT22;7202;50.718;7.072;2023-06-14T11:35:08;24.40;95.60
14236;DHT22;7202;50.718;7.072;2023-06-14T11:37:38;24.40;93.90
14236;DHT22;7202;50.718;7.072;2023-06-14T11:40:08;24.40;94.70
14236;DHT22;7202;50.718;7.072;2023-06-14T11:42:38;24.30;95.20
14236;DHT22;7202;50.718;7.072;2023-06-14T11:45:08;24.20;96.20
14236;DHT22;7202;50.718;7.072;2023-06-14T11:47:38;24.10;95.20
14236;DHT22;7202;50.718;7.072;2023-06-14T11:50:09;24.00;95.50
14236;DHT22;7202;50.718;7.072;2023-06-14T11:52:38;24.00;96.20
14236;DHT22;7202;50.718;7.072;2023-06-14T11:55:07;24.00;95.90
14236;DHT22;7202;50.718;7.072;2023-06-14T11:57:36;24.20;97.70
14236;DHT22;7202;50.718;7.072;2023-06-14T12:00:07;24.30;96.60
14236;DHT22;7202;50.718;7.072;2023-06-14T12:02:41;24.30;96.40
14236;DHT22;7202;50.718;7.072;2023-06-14T12:05:12;24.40;95.20
14236;DHT22;7202;50.718;7.072;2023-06-14T12:07:41;24.50;94.20
14236;DHT22;7202;50.718;7.072;2023-06-14T12:10:14;24.70;93.70
14236;DHT22;7202;50.718;7.072;2023-06-14T12:12:43;24.80;93.60
14236;DHT22;7202;50.718;7.072;2023-06-14T12:15:12;24.80;93.50
14236;DHT22;7202;50.718;7.072;2023-06-14T12:17:42;24.90;94.00
14236;DHT22;7202;50.718;7.072;2023-06-14T12:20:14;25.00;91.60
14236;DHT22;7202;50.718;7.072;2023-06-14T12:22:53;25.00;92.70
14236;DHT22;7202;50.718;7.072;2023-06-14T12:25:26;25.10;92.30
14236;DHT22;7202;50.718;7.072;2023-06-14T12:27:55;25.20;93.30
14236;DHT22;7202;50.718;7.072;2023-06-14T12:30:24;25.20;91.80
14236;DHT22;7202;50.718;7.072;2023-06-14T12:32:52;25.20;92.50
14236;DHT22;7202;50.718;7.072;2023-06-14T12:35:23;25.20;91.30
14236;DHT22;7202;50.718;7.072;2023-06-14T12:37:52;25.20;91.70
14236;DHT22;7202;50.718;7.072;2023-06-14T12:40:22;25.20;91.30
14236;DHT22;7202;50.718;7.072;2023-06-14T12:42:51;25.20;91.30
14236;DHT22;7202;50.718;7.072;2023-06-14T12:45:19;25.20;93.50
14236;DHT22;7202;50.718;7.072;2023-06-14T12:47:48;25.20;92.90
14236;DHT22;7202;50.718;7.072;2023-06-14T12:50:17;25.30;93.00
14236;DHT22;7202;50.718;7.072;2023-06-14T12:52:48;25.30;93.60
14236;DHT22;7202;50.718;7.072;2023-06-14T12:55:17;25.40;92.60
14236;DHT22;7202;50.718;7.072;2023-06-14T12:57:46;25.50;93.00
14236;DHT22;7202;50.718;7.072;2023-06-14T13:00:17;25.50;93.70
14236;DHT22;7202;50.718;7.072;2023-06-14T13:02:47;25.50;91.50
14236;DHT22;7202;50.718;7.072;2023-06-14T13:05:16;25.50;93.90
14236;DHT22;7202;50.718;7.072;2023-06-14T13:07:44;25.60;93.60
14236;DHT22;7202;50.718;7.072;2023-06-14T13:10:15;25.50;92.00
14236;DHT22;7202;50.718;7.072;2023-06-14T13:12:44;25.20;92.00
14236;DHT22;7202;50.718;7.072;2023-06-14T13:15:13;25.20;91.90
14236;DHT22;7202;50.718;7.072;2023-06-14T13:17:42;25.10;92.90
14236;DHT22;7202;50.718;7.072;2023-06-14T13:20:15;25.10;92.00
14236;DHT22;7202;50.718;7.072;2023-06-14T13:22:47;25.20;92.80
14236;DHT22;7202;50.718;7.072;2023-06-14T13:25:17;25.20;92.40
14236;DHT22;7202;50.718;7.072;2023-06-14T13:27:46;25.30;92.60
14236;DHT22;7202;50.718;7.072;2023-06-14T13:30:15;25.40;92.10
14236;DHT22;7202;50.718;7.072;2023-06-14T13:32:44;25.40;91.90
14236;DHT22;7202;50.718;7.072;2023-06-14T13:35:16;25.40;91.10
14236;DHT22;7202;50.718;7.072;2023-06-14T13:37:45;25.40;91.60
14236;DHT22;7202;50.718;7.072;2023-06-14T13:40:14;25.40;92.80
14236;DHT22;7202;50.718;7.072;2023-06-14T13:42:45;25.40;91.90
14236;DHT22;7202;50.718;7.072;2023-06-14T13:45:15;25.40;91.10
14236;DHT22;7202;50.718;7.072;2023-06-14T13:47:44;25.40;92.70
14236;DHT22;7202;50.718;7.072;2023-06-14T13:50:15;25.50;91.50
14236;DHT22;7202;50.718;7.072;2023-06-14T13:52:45;25.50;90.20
14236;DHT22;7202;50.718;7.072;2023-06-14T13:55:14;25.50;90.90
14236;DHT22;7202;50.718;7.072;2023-06-14T13:57:44;25.50;91.10
14236;DHT22;7202;50.718;7.072;2023-06-14T14:00:14;25.50;91.20
14236;DHT22;7202;50.718;7.072;2023-06-14T14:02:43;25.50;91.60
14236;DHT22;7202;50.718;7.072;2023-06-14T14:05:12;25.50;91.50
14236;DHT22;7202;50.718;7.072;2023-06-14T14:07:41;25.50;91.80
14236;DHT22;7202;50.718;7.072;2023-06-14T14:10:10;25.50;91.20
14236;DHT22;7202;50.718;7.072;2023-06-14T14:12:40;25.50;91.20
14236;DHT22;7202;50.718;7.072;2023-06-14T14:15:11;25.40;91.30
14236;DHT22;7202;50.718;7.072;2023-06-14T14:17:42;25.30;91.20
14236;DHT22;7202;50.718;7.072;2023-06-14T14:20:11;25.30;91.50
14236;DHT22;7202;50.718;7.072;2023-06-14T14:22:43;25.30;91.70
14236;DHT22;7202;50.718;7.072;2023-06-14T14:25:12;25.30;91.00
14236;DHT22;7202;50.718;7.072;2023-06-14T14:27:41;25.40;91.40
14236;DHT22;7202;50.718;7.072;2023-06-14T14:30:12;25.50;92.00
14236;DHT22;7202;50.718;7.072;2023-06-14T14:32:42;25.50;90.50
14236;DHT22;7202;50.718;7.072;2023-06-14T14:35:11;25.30;91.10
14236;DHT22;7202;50.718;7.072;2023-06-14T14:37:40;25.20;91.00
14236;DHT22;7202;50.718;7.072;2023-06-14T14:40:09;25.00;91.80
14236;DHT22;7202;50.718;7.072;2023-06-14T14:42:38;24.80;91.80
14236;DHT22;7202;50.718;7.072;2023-06-14T14:45:07;24.70;91.70
14236;DHT22;7202;50.718;7.072;2023-06-14T14:47:37;24.70;92.10
14236;DHT22;7202;50.718;7.072;2023-06-14T14:50:07;24.60;92.70
14236;DHT22;7202;50.718;7.072;2023-06-14T14:52:36;24.60;92.60
14236;DHT22;7202;50.718;7.072;2023-06-14T14:55:06;24.70;92.70
14236;DHT22;7202;50.718;7.072;2023-06-14T14:57:34;24.80;92.40
14236;DHT22;7202;50.718;7.072;2023-06-14T15:00:05;24.70;92.50
14236;DHT22;7202;50.718;7.072;2023-06-14T15:02:34;24.60;92.80
14236;DHT22;7202;50.718;7.072;2023-06-14T15:05:04;24.40;92.60
14236;DHT22;7202;50.718;7.072;2023-06-14T15:07:33;24.30;92.60
14236;DHT22;7202;50.718;7.072;2023-06-14T15:10:02;24.20;92.60
14236;DHT22;7202;50.718;7.072;2023-06-14T15:12:32;24.10;93.10
14236;DHT22;7202;50.718;7.072;2023-06-14T15:15:00;24.10;93.40
14236;DHT22;7202;50.718;7.072;2023-06-14T15:17:29;24.20;94.00
14236;DHT22;7202;50.718;7.072;2023-06-14T15:19:58;24.20;93.00
14236;DHT22;7202;50.718;7.072;2023-06-14T15:22:28;24.40;92.70
14236;DHT22;7202;50.718;7.072;2023-06-14T15:24:57;24.40;92.30
14236;DHT22;7202;50.718;7.072;2023-06-14T15:27:26;24.40;92.30
14236;DHT22;7202;50.718;7.072;2023-06-14T15:29:55;24.40;92.70
14236;DHT22;7202;50.718;7.072;2023-06-14T15:32:23;24.30;92.80
14236;DHT22;7202;50.718;7.072;2023-06-14T15:34:52;24.30;92.60
14236;DHT22;7202;50.718;7.072;2023-06-14T15:37:21;24.30;92.20
14236;DHT22;7202;50.718;7.072;2023-06-14T15:39:51;24.30;93.10
14236;DHT22;7202;50.718;7.072;2023-06-14T15:42:19;24.40;92.50
14236;DHT22;7202;50.718;7.072;2023-06-14T15:44:48;24.40;93.00
14236;DHT22;7202;50.718;7.072;2023-06-14T15:47:17;24.40;93.00
14236;DHT22;7202;50.718;7.072;2023-06-14T15:49:46;24.50;93.40
14236;DHT22;7202;50.718;7.072;2023-06-14T15:52:14;24.50;93.30
14236;DHT22;7202;50.718;7.072;2023-06-14T15:54:43;24.50;93.90
14236;DHT22;7202;50.718;7.072;2023-06-14T15:57:13;24.40;93.40
14236;DHT22;7202;50.718;7.072;2023-06-14T15:59:41;24.30;93.00
14236;DHT22;7202;50.718;7.072;2023-06-14T16:02:10;24.20;92.40
14236;DHT22;7202;50.718;7.072;2023-06-14T16:04:39;24.20;92.80